Terminal Aerodrome Forecast
Issued by NWS

Home | Current Version | Previous Version | Graphics & Text | Print | Product List | Glossary On
Versions: 1 2 3 4 5 6 7 8 9 10 11 12 13 14 15 16 17 18 19 20 21 22 23
000
FTUS43 KICT 240500
TAFSLN
TAF
KSLN 240520Z 2406/2506 17008KT P6SM SCT200
     FM240800 19006KT 4SM BR SCT250
     FM241200 19008KT P6SM OVC015
     FM241800 21015KT P6SM SKC=

USA.gov is the U.S. government's official web portal to all federal, state and local government web resources and services.